sensor_id;sensor_type;location;lat;lon;timestamp;P1;P2;P0
57289;PMS5003;43523;53.022;-1.178;2024-03-17T00:00:52;25;21;
57289;PMS5003;43523;53.022;-1.178;2024-03-17T00:01:55;16;14;
57289;PMS5003;43523;53.022;-1.178;2024-03-17T00:02:57;16;16;
57289;PMS5003;43523;53.022;-1.178;2024-03-17T00:03:59;17;15;
57289;PMS5003;43523;53.022;-1.178;2024-03-17T00:05:02;19;17;
57289;PMS5003;43523;53.022;-1.178;2024-03-17T00:06:06;14;14;
57289;PMS5003;43523;53.022;-1.178;2024-03-17T00:07:09;19;17;
57289;PMS5003;43523;53.022;-1.178;2024-03-17T00:08:11;20;16;
57289;PMS5003;43523;53.022;-1.178;2024-03-17T00:09:15;21;18;
57289;PMS5003;43523;53.022;-1.178;2024-03-17T00:10:18;28;20;
57289;PMS5003;43523;53.022;-1.178;2024-03-17T00:11:20;26;22;
57289;PMS5003;43523;53.022;-1.178;2024-03-17T00:12:23;21;19;
57289;PMS5003;43523;53.022;-1.178;2024-03-17T00:13:25;21;19;
57289;PMS5003;43523;53.022;-1.178;2024-03-17T00:14:28;21;17;
57289;PMS5003;43523;53.022;-1.178;2024-03-17T00:15:30;26;15;
57289;PMS5003;43523;53.022;-1.178;2024-03-17T00:16:32;16;15;
57289;PMS5003;43523;53.022;-1.178;2024-03-17T00:17:35;19;17;
57289;PMS5003;43523;53.022;-1.178;2024-03-17T00:18:37;18;16;
57289;PMS5003;43523;53.022;-1.178;2024-03-17T00:19:40;22;19;
57289;PMS5003;43523;53.022;-1.178;2024-03-17T00:20:43;21;16;
57289;PMS5003;43523;53.022;-1.178;2024-03-17T00:21:45;22;18;
57289;PMS5003;43523;53.022;-1.178;2024-03-17T00:22:48;21;17;
57289;PMS5003;43523;53.022;-1.178;2024-03-17T00:23:51;20;18;
57289;PMS5003;43523;53.022;-1.178;2024-03-17T00:24:53;17;17;
57289;PMS5003;43523;53.022;-1.178;2024-03-17T00:25:55;22;20;
57289;PMS5003;43523;53.022;-1.178;2024-03-17T00:26:58;21;16;
57289;PMS5003;43523;53.022;-1.178;2024-03-17T00:28:00;18;17;
57289;PMS5003;43523;53.022;-1.178;2024-03-17T00:29:03;17;16;
57289;PMS5003;43523;53.022;-1.178;2024-03-17T00:30:05;18;18;
57289;PMS5003;43523;53.022;-1.178;2024-03-17T00:31:09;25;20;
57289;PMS5003;43523;53.022;-1.178;2024-03-17T00:32:11;20;20;
57289;PMS5003;43523;53.022;-1.178;2024-03-17T00:33:15;20;18;
57289;PMS5003;43523;53.022;-1.178;2024-03-17T00:34:18;23;19;
57289;PMS5003;43523;53.022;-1.178;2024-03-17T00:35:20;19;19;
57289;PMS5003;43523;53.022;-1.178;2024-03-17T00:36:22;18;18;
57289;PMS5003;43523;53.022;-1.178;2024-03-17T00:37:25;21;18;
57289;PMS5003;43523;53.022;-1.178;2024-03-17T00:38:27;16;14;
57289;PMS5003;43523;53.022;-1.178;2024-03-17T00:39:30;20;17;
57289;PMS5003;43523;53.022;-1.178;2024-03-17T00:40:33;19;18;
57289;PMS5003;43523;53.022;-1.178;2024-03-17T00:41:35;20;19;
57289;PMS5003;43523;53.022;-1.178;2024-03-17T00:42:38;26;23;
57289;PMS5003;43523;53.022;-1.178;2024-03-17T00:43:40;20;15;
57289;PMS5003;43523;53.022;-1.178;2024-03-17T00:44:43;20;17;
57289;PMS5003;43523;53.022;-1.178;2024-03-17T00:45:51;24;20;
57289;PMS5003;43523;53.022;-1.178;2024-03-17T00:46:53;18;17;
57289;PMS5003;43523;53.022;-1.178;2024-03-17T00:47:55;24;22;
57289;PMS5003;43523;53.022;-1.178;2024-03-17T00:48:59;20;19;
57289;PMS5003;43523;53.022;-1.178;2024-03-17T00:50:02;20;18;
57289;PMS5003;43523;53.022;-1.178;2024-03-17T00:51:05;24;20;
57289;PMS5003;43523;53.022;-1.178;2024-03-17T00:52:07;17;17;
57289;PMS5003;43523;53.022;-1.178;2024-03-17T00:53:10;24;20;
57289;PMS5003;43523;53.022;-1.178;2024-03-17T00:54:13;20;19;
57289;PMS5003;43523;53.022;-1.178;2024-03-17T00:55:15;21;19;
57289;PMS5003;43523;53.022;-1.178;2024-03-17T00:56:17;23;18;
57289;PMS5003;43523;53.022;-1.178;2024-03-17T00:57:20;23;22;
57289;PMS5003;43523;53.022;-1.178;2024-03-17T00:58:22;22;19;
57289;PMS5003;43523;53.022;-1.178;2024-03-17T00:59:25;28;22;
57289;PMS5003;43523;53.022;-1.178;2024-03-17T01:02:23;21;20;
57289;PMS5003;43523;53.022;-1.178;2024-03-17T01:03:26;22;20;
57289;PMS5003;43523;53.022;-1.178;2024-03-17T01:04:29;20;17;
57289;PMS5003;43523;53.022;-1.178;2024-03-17T01:05:31;25;23;
57289;PMS5003;43523;53.022;-1.178;2024-03-17T01:06:34;25;21;
57289;PMS5003;43523;53.022;-1.178;2024-03-17T01:07:37;17;17;
57289;PMS5003;43523;53.022;-1.178;2024-03-17T01:08:40;22;21;
57289;PMS5003;43523;53.022;-1.178;2024-03-17T01:09:42;23;18;
57289;PMS5003;43523;53.022;-1.178;2024-03-17T01:10:45;20;18;
57289;PMS5003;43523;53.022;-1.178;2024-03-17T01:11:48;22;17;
57289;PMS5003;43523;53.022;-1.178;2024-03-17T01:12:51;24;19;
57289;PMS5003;43523;53.022;-1.178;2024-03-17T01:13:53;21;19;
57289;PMS5003;43523;53.022;-1.178;2024-03-17T01:14:56;27;19;
57289;PMS5003;43523;53.022;-1.178;2024-03-17T01:15:59;11;11;
57289;PMS5003;43523;53.022;-1.178;2024-03-17T01:17:01;16;14;
57289;PMS5003;43523;53.022;-1.178;2024-03-17T01:18:04;18;18;
57289;PMS5003;43523;53.022;-1.178;2024-03-17T01:19:07;21;19;
57289;PMS5003;43523;53.022;-1.178;2024-03-17T01:20:10;18;17;
57289;PMS5003;43523;53.022;-1.178;2024-03-17T01:21:13;21;17;
57289;PMS5003;43523;53.022;-1.178;2024-03-17T01:22:15;20;20;
57289;PMS5003;43523;53.022;-1.178;2024-03-17T01:23:17;13;13;
57289;PMS5003;43523;53.022;-1.178;2024-03-17T01:24:20;22;16;
57289;PMS5003;43523;53.022;-1.178;2024-03-17T01:25:22;19;19;
57289;PMS5003;43523;53.022;-1.178;2024-03-17T01:26:25;22;19;
57289;PMS5003;43523;53.022;-1.178;2024-03-17T01:27:27;16;16;
57289;PMS5003;43523;53.022;-1.178;2024-03-17T01:28:29;19;16;
57289;PMS5003;43523;53.022;-1.178;2024-03-17T01:29:33;17;15;
57289;PMS5003;43523;53.022;-1.178;2024-03-17T01:30:37;19;16;
57289;PMS5003;43523;53.022;-1.178;2024-03-17T01:31:39;18;16;
57289;PMS5003;43523;53.022;-1.178;2024-03-17T01:32:42;18;14;
57289;PMS5003;43523;53.022;-1.178;2024-03-17T01:33:46;23;21;
57289;PMS5003;43523;53.022;-1.178;2024-03-17T01:34:48;23;21;
57289;PMS5003;43523;53.022;-1.178;2024-03-17T01:35:50;22;17;
57289;PMS5003;43523;53.022;-1.178;2024-03-17T01:36:53;22;16;
57289;PMS5003;43523;53.022;-1.178;2024-03-17T01:37:55;18;15;
57289;PMS5003;43523;53.022;-1.178;2024-03-17T01:38:58;16;16;
57289;PMS5003;43523;53.022;-1.178;2024-03-17T01:40:01;26;19;
57289;PMS5003;43523;53.022;-1.178;2024-03-17T01:41:03;20;16;
57289;PMS5003;43523;53.022;-1.178;2024-03-17T01:42:05;21;17;
57289;PMS5003;43523;53.022;-1.178;2024-03-17T01:43:09;34;24;
57289;PMS5003;43523;53.022;-1.178;2024-03-17T01:44:21;16;16;
57289;PMS5003;43523;53.022;-1.178;2024-03-17T01:45:26;21;19;
57289;PMS5003;43523;53.022;-1.178;2024-03-17T01:46:29;19;17;
57289;PMS5003;43523;53.022;-1.178;2024-03-17T01:47:37;23;17;
57289;PMS5003;43523;53.022;-1.178;2024-03-17T01:48:40;17;17;
57289;PMS5003;43523;53.022;-1.178;2024-03-17T01:49:43;19;16;
57289;PMS5003;43523;53.022;-1.178;2024-03-17T01:50:45;22;18;
57289;PMS5003;43523;53.022;-1.178;2024-03-17T01:51:50;16;16;
57289;PMS5003;43523;53.022;-1.178;2024-03-17T01:52:54;26;18;
57289;PMS5003;43523;53.022;-1.178;2024-03-17T01:54:00;21;17;
57289;PMS5003;43523;53.022;-1.178;2024-03-17T01:55:02;19;17;
57289;PMS5003;43523;53.022;-1.178;2024-03-17T01:56:06;21;18;
57289;PMS5003;43523;53.022;-1.178;2024-03-17T01:57:11;22;17;
57289;PMS5003;43523;53.022;-1.178;2024-03-17T01:58:14;17;15;
57289;PMS5003;43523;53.022;-1.178;2024-03-17T01:59:18;23;20;
57289;PMS5003;43523;53.022;-1.178;2024-03-17T02:00:20;24;21;
57289;PMS5003;43523;53.022;-1.178;2024-03-17T02:01:23;19;15;
57289;PMS5003;43523;53.022;-1.178;2024-03-17T02:02:25;19;17;
57289;PMS5003;43523;53.022;-1.178;2024-03-17T02:03:28;25;19;
57289;PMS5003;43523;53.022;-1.178;2024-03-17T02:04:30;19;17;
57289;PMS5003;43523;53.022;-1.178;2024-03-17T02:05:33;23;18;
57289;PMS5003;43523;53.022;-1.178;2024-03-17T02:06:36;26;23;
57289;PMS5003;43523;53.022;-1.178;2024-03-17T02:07:38;20;18;
57289;PMS5003;43523;53.022;-1.178;2024-03-17T02:08:49;14;14;
57289;PMS5003;43523;53.022;-1.178;2024-03-17T02:09:52;20;17;
57289;PMS5003;43523;53.022;-1.178;2024-03-17T02:10:54;15;14;
57289;PMS5003;43523;53.022;-1.178;2024-03-17T02:11:57;20;16;
57289;PMS5003;43523;53.022;-1.178;2024-03-17T02:12:59;17;16;
57289;PMS5003;43523;53.022;-1.178;2024-03-17T02:14:02;15;14;
57289;PMS5003;43523;53.022;-1.178;2024-03-17T02:15:07;18;16;
57289;PMS5003;43523;53.022;-1.178;2024-03-17T02:16:10;23;18;
57289;PMS5003;43523;53.022;-1.178;2024-03-17T02:17:13;20;15;
57289;PMS5003;43523;53.022;-1.178;2024-03-17T02:18:15;19;16;
57289;PMS5003;43523;53.022;-1.178;2024-03-17T02:19:17;19;16;
57289;PMS5003;43523;53.022;-1.178;2024-03-17T02:20:20;17;16;
57289;PMS5003;43523;53.022;-1.178;2024-03-17T02:21:22;16;16;
57289;PMS5003;43523;53.022;-1.178;2024-03-17T02:22:25;19;14;
57289;PMS5003;43523;53.022;-1.178;2024-03-17T02:23:28;18;17;
57289;PMS5003;43523;53.022;-1.178;2024-03-17T02:24:30;23;19;
57289;PMS5003;43523;53.022;-1.178;2024-03-17T02:25:33;18;15;
57289;PMS5003;43523;53.022;-1.178;2024-03-17T02:26:35;20;17;
57289;PMS5003;43523;53.022;-1.178;2024-03-17T02:27:38;19;18;
57289;PMS5003;43523;53.022;-1.178;2024-03-17T02:28:40;15;12;
57289;PMS5003;43523;53.022;-1.178;2024-03-17T02:29:49;16;15;
57289;PMS5003;43523;53.022;-1.178;2024-03-17T02:30:52;20;16;
57289;PMS5003;43523;53.022;-1.178;2024-03-17T02:31:55;19;14;
57289;PMS5003;43523;53.022;-1.178;2024-03-17T02:32:57;17;12;
57289;PMS5003;43523;53.022;-1.178;2024-03-17T02:33:59;20;17;
57289;PMS5003;43523;53.022;-1.178;2024-03-17T02:35:02;15;15;
57289;PMS5003;43523;53.022;-1.178;2024-03-17T02:36:05;15;13;
57289;PMS5003;43523;53.022;-1.178;2024-03-17T02:37:08;21;15;
57289;PMS5003;43523;53.022;-1.178;2024-03-17T02:38:10;19;18;
57289;PMS5003;43523;53.022;-1.178;2024-03-17T02:39:17;18;17;
57289;PMS5003;43523;53.022;-1.178;2024-03-17T02:40:21;17;15;
57289;PMS5003;43523;53.022;-1.178;2024-03-17T02:41:24;21;17;
57289;PMS5003;43523;53.022;-1.178;2024-03-17T02:42:28;20;17;
57289;PMS5003;43523;53.022;-1.178;2024-03-17T02:43:30;18;15;
57289;PMS5003;43523;53.022;-1.178;2024-03-17T02:44:34;20;15;
57289;PMS5003;43523;53.022;-1.178;2024-03-17T02:45:38;18;17;
57289;PMS5003;43523;53.022;-1.178;2024-03-17T02:46:40;17;14;
57289;PMS5003;43523;53.022;-1.178;2024-03-17T02:47:42;16;14;
57289;PMS5003;43523;53.022;-1.178;2024-03-17T02:48:51;18;16;
57289;PMS5003;43523;53.022;-1.178;2024-03-17T02:49:55;22;20;
57289;PMS5003;43523;53.022;-1.178;2024-03-17T02:50:57;22;17;
57289;PMS5003;43523;53.022;-1.178;2024-03-17T02:52:02;17;14;
57289;PMS5003;43523;53.022;-1.178;2024-03-17T02:53:05;21;15;
57289;PMS5003;43523;53.022;-1.178;2024-03-17T02:54:07;21;16;
57289;PMS5003;43523;53.022;-1.178;2024-03-17T02:55:09;16;15;
57289;PMS5003;43523;53.022;-1.178;2024-03-17T02:56:11;18;16;
57289;PMS5003;43523;53.022;-1.178;2024-03-17T02:57:14;16;16;
57289;PMS5003;43523;53.022;-1.178;2024-03-17T02:58:17;22;18;
57289;PMS5003;43523;53.022;-1.178;2024-03-17T02:59:19;16;14;
57289;PMS5003;43523;53.022;-1.178;2024-03-17T03:00:21;19;19;
57289;PMS5003;43523;53.022;-1.178;2024-03-17T03:01:24;17;17;
57289;PMS5003;43523;53.022;-1.178;2024-03-17T03:02:27;18;14;
57289;PMS5003;43523;53.022;-1.178;2024-03-17T03:03:30;15;14;
57289;PMS5003;43523;53.022;-1.178;2024-03-17T03:04:33;22;15;
57289;PMS5003;43523;53.022;-1.178;2024-03-17T03:05:36;30;24;
57289;PMS5003;43523;53.022;-1.178;2024-03-17T03:06:38;19;15;
57289;PMS5003;43523;53.022;-1.178;2024-03-17T03:07:40;20;17;
57289;PMS5003;43523;53.022;-1.178;2024-03-17T03:08:43;18;17;
57289;PMS5003;43523;53.022;-1.178;2024-03-17T03:09:45;15;14;
57289;PMS5003;43523;53.022;-1.178;2024-03-17T03:10:47;21;17;
57289;PMS5003;43523;53.022;-1.178;2024-03-17T03:11:50;21;17;
57289;PMS5003;43523;53.022;-1.178;2024-03-17T03:12:53;12;11;
57289;PMS5003;43523;53.022;-1.178;2024-03-17T03:13:55;17;13;
57289;PMS5003;43523;53.022;-1.178;2024-03-17T03:14:58;14;12;
57289;PMS5003;43523;53.022;-1.178;2024-03-17T03:16:00;17;14;
57289;PMS5003;43523;53.022;-1.178;2024-03-17T03:17:03;17;15;
57289;PMS5003;43523;53.022;-1.178;2024-03-17T03:18:06;17;15;
57289;PMS5003;43523;53.022;-1.178;2024-03-17T03:19:14;16;13;
57289;PMS5003;43523;53.022;-1.178;2024-03-17T03:20:16;18;15;
57289;PMS5003;43523;53.022;-1.178;2024-03-17T03:21:18;18;17;
57289;PMS5003;43523;53.022;-1.178;2024-03-17T03:22:21;20;16;
57289;PMS5003;43523;53.022;-1.178;2024-03-17T03:23:23;23;19;
57289;PMS5003;43523;53.022;-1.178;2024-03-17T03:24:25;16;15;
57289;PMS5003;43523;53.022;-1.178;2024-03-17T03:25:28;17;13;
57289;PMS5003;43523;53.022;-1.178;2024-03-17T03:26:30;17;14;
57289;PMS5003;43523;53.022;-1.178;2024-03-17T03:27:35;22;17;
57289;PMS5003;43523;53.022;-1.178;2024-03-17T03:28:37;16;16;
57289;PMS5003;43523;53.022;-1.178;2024-03-17T03:29:39;23;17;
57289;PMS5003;43523;53.022;-1.178;2024-03-17T03:30:43;18;15;
57289;PMS5003;43523;53.022;-1.178;2024-03-17T03:31:45;14;14;
57289;PMS5003;43523;53.022;-1.178;2024-03-17T03:32:47;21;17;
57289;PMS5003;43523;53.022;-1.178;2024-03-17T03:33:49;18;11;
57289;PMS5003;43523;53.022;-1.178;2024-03-17T03:34:52;16;14;
57289;PMS5003;43523;53.022;-1.178;2024-03-17T03:35:54;17;15;
57289;PMS5003;43523;53.022;-1.178;2024-03-17T03:36:56;18;17;
57289;PMS5003;43523;53.022;-1.178;2024-03-17T03:37:58;19;17;
57289;PMS5003;43523;53.022;-1.178;2024-03-17T03:39:01;16;14;
57289;PMS5003;43523;53.022;-1.178;2024-03-17T03:40:05;17;16;
57289;PMS5003;43523;53.022;-1.178;2024-03-17T03:41:08;18;13;
57289;PMS5003;43523;53.022;-1.178;2024-03-17T03:42:12;20;17;
57289;PMS5003;43523;53.022;-1.178;2024-03-17T03:43:15;15;14;
57289;PMS5003;43523;53.022;-1.178;2024-03-17T03:44:17;21;17;
57289;PMS5003;43523;53.022;-1.178;2024-03-17T03:45:19;23;19;
57289;PMS5003;43523;53.022;-1.178;2024-03-17T03:46:22;19;17;
57289;PMS5003;43523;53.022;-1.178;2024-03-17T03:47:24;18;14;
57289;PMS5003;43523;53.022;-1.178;2024-03-17T03:48:26;18;14;
57289;PMS5003;43523;53.022;-1.178;2024-03-17T03:49:29;22;18;
57289;PMS5003;43523;53.022;-1.178;2024-03-17T03:50:31;20;17;
57289;PMS5003;43523;53.022;-1.178;2024-03-17T03:51:35;20;15;
57289;PMS5003;43523;53.022;-1.178;2024-03-17T03:52:38;17;15;
57289;PMS5003;43523;53.022;-1.178;2024-03-17T03:53:40;16;14;
57289;PMS5003;43523;53.022;-1.178;2024-03-17T03:54:44;17;15;
57289;PMS5003;43523;53.022;-1.178;2024-03-17T03:55:46;17;13;
57289;PMS5003;43523;53.022;-1.178;2024-03-17T03:56:48;18;15;
57289;PMS5003;43523;53.022;-1.178;2024-03-17T03:57:51;21;18;
57289;PMS5003;43523;53.022;-1.178;2024-03-17T03:58:53;19;15;
57289;PMS5003;43523;53.022;-1.178;2024-03-17T03:59:55;25;19;
57289;PMS5003;43523;53.022;-1.178;2024-03-17T04:00:58;20;16;
57289;PMS5003;43523;53.022;-1.178;2024-03-17T04:02:00;16;16;
57289;PMS5003;43523;53.022;-1.178;2024-03-17T04:03:02;21;16;
57289;PMS5003;43523;53.022;-1.178;2024-03-17T04:04:04;18;18;
57289;PMS5003;43523;53.022;-1.178;2024-03-17T04:05:07;17;15;
57289;PMS5003;43523;53.022;-1.178;2024-03-17T04:06:10;22;19;
57289;PMS5003;43523;53.022;-1.178;2024-03-17T04:07:13;20;17;
57289;PMS5003;43523;53.022;-1.178;2024-03-17T04:08:15;20;15;
57289;PMS5003;43523;53.022;-1.178;2024-03-17T04:09:18;21;16;
57289;PMS5003;43523;53.022;-1.178;2024-03-17T04:10:21;21;20;
57289;PMS5003;43523;53.022;-1.178;2024-03-17T04:11:23;20;20;
57289;PMS5003;43523;53.022;-1.178;2024-03-17T04:12:25;14;13;
57289;PMS5003;43523;53.022;-1.178;2024-03-17T04:13:28;21;16;
57289;PMS5003;43523;53.022;-1.178;2024-03-17T04:14:30;17;14;
57289;PMS5003;43523;53.022;-1.178;2024-03-17T04:15:33;16;14;
57289;PMS5003;43523;53.022;-1.178;2024-03-17T04:16:36;19;18;
57289;PMS5003;43523;53.022;-1.178;2024-03-17T04:17:39;19;15;
57289;PMS5003;43523;53.022;-1.178;2024-03-17T04:18:41;20;16;
57289;PMS5003;43523;53.022;-1.178;2024-03-17T04:19:43;14;14;
57289;PMS5003;43523;53.022;-1.178;2024-03-17T04:20:46;18;15;
57289;PMS5003;43523;53.022;-1.178;2024-03-17T04:21:49;18;14;
57289;PMS5003;43523;53.022;-1.178;2024-03-17T04:22:51;21;17;
57289;PMS5003;43523;53.022;-1.178;2024-03-17T04:23:53;23;17;
57289;PMS5003;43523;53.022;-1.178;2024-03-17T04:24:55;18;15;
57289;PMS5003;43523;53.022;-1.178;2024-03-17T04:25:58;13;13;
57289;PMS5003;43523;53.022;-1.178;2024-03-17T04:27:01;18;15;
57289;PMS5003;43523;53.022;-1.178;2024-03-17T04:28:04;15;12;
57289;PMS5003;43523;53.022;-1.178;2024-03-17T04:29:06;16;14;
57289;PMS5003;43523;53.022;-1.178;2024-03-17T04:30:09;14;13;
57289;PMS5003;43523;53.022;-1.178;2024-03-17T04:31:12;16;13;
57289;PMS5003;43523;53.022;-1.178;2024-03-17T04:32:14;17;14;
57289;PMS5003;43523;53.022;-1.178;2024-03-17T04:33:16;13;13;
57289;PMS5003;43523;53.022;-1.178;2024-03-17T04:34:19;19;15;
57289;PMS5003;43523;53.022;-1.178;2024-03-17T04:35:22;13;13;
57289;PMS5003;43523;53.022;-1.178;2024-03-17T04:36:24;15;12;
57289;PMS5003;43523;53.022;-1.178;2024-03-17T04:37:27;14;13;
57289;PMS5003;43523;53.022;-1.178;2024-03-17T04:38:29;15;12;
57289;PMS5003;43523;53.022;-1.178;2024-03-17T04:39:33;17;14;
57289;PMS5003;43523;53.022;-1.178;2024-03-17T04:40:39;16;14;
57289;PMS5003;43523;53.022;-1.178;2024-03-17T04:41:44;17;15;
57289;PMS5003;43523;53.022;-1.178;2024-03-17T04:42:48;13;13;
57289;PMS5003;43523;53.022;-1.178;2024-03-17T04:43:51;14;14;
57289;PMS5003;43523;53.022;-1.178;2024-03-17T04:44:55;23;15;
57289;PMS5003;43523;53.022;-1.178;2024-03-17T04:46:00;14;13;
57289;PMS5003;43523;53.022;-1.178;2024-03-17T04:47:05;15;12;
57289;PMS5003;43523;53.022;-1.178;2024-03-17T04:48:19;18;12;
57289;PMS5003;43523;53.022;-1.178;2024-03-17T04:49:23;14;12;
57289;PMS5003;43523;53.022;-1.178;2024-03-17T04:50:25;18;15;
57289;PMS5003;43523;53.022;-1.178;2024-03-17T04:51:29;19;15;
57289;PMS5003;43523;53.022;-1.178;2024-03-17T04:52:34;13;10;
57289;PMS5003;43523;53.022;-1.178;2024-03-17T04:53:36;15;13;
57289;PMS5003;43523;53.022;-1.178;2024-03-17T04:54:38;14;12;
57289;PMS5003;43523;53.022;-1.178;2024-03-17T04:55:41;15;12;
57289;PMS5003;43523;53.022;-1.178;2024-03-17T04:56:43;18;14;
57289;PMS5003;43523;53.022;-1.178;2024-03-17T04:57:46;11;11;
57289;PMS5003;43523;53.022;-1.178;2024-03-17T04:58:53;13;10;
57289;PMS5003;43523;53.022;-1.178;2024-03-17T04:59:56;13;13;
57289;PMS5003;43523;53.022;-1.178;2024-03-17T05:01:02;22;15;
57289;PMS5003;43523;53.022;-1.178;2024-03-17T05:02:05;16;14;
57289;PMS5003;43523;53.022;-1.178;2024-03-17T05:03:08;14;13;
57289;PMS5003;43523;53.022;-1.178;2024-03-17T05:04:10;10;10;
57289;PMS5003;43523;53.022;-1.178;2024-03-17T05:05:13;14;13;
57289;PMS5003;43523;53.022;-1.178;2024-03-17T05:06:15;14;12;
57289;PMS5003;43523;53.022;-1.178;2024-03-17T05:07:17;13;11;
57289;PMS5003;43523;53.022;-1.178;2024-03-17T05:08:20;14;11;
57289;PMS5003;43523;53.022;-1.178;2024-03-17T05:09:22;15;12;
57289;PMS5003;43523;53.022;-1.178;2024-03-17T05:10:25;13;11;
57289;PMS5003;43523;53.022;-1.178;2024-03-17T05:11:27;12;12;
57289;PMS5003;43523;53.022;-1.178;2024-03-17T05:12:29;14;11;
57289;PMS5003;43523;53.022;-1.178;2024-03-17T05:13:33;13;12;
57289;PMS5003;43523;53.022;-1.178;2024-03-17T05:14:37;15;11;
57289;PMS5003;43523;53.022;-1.178;2024-03-17T05:15:39;14;14;
57289;PMS5003;43523;53.022;-1.178;2024-03-17T05:16:42;15;12;
57289;PMS5003;43523;53.022;-1.178;2024-03-17T05:17:44;11;11;
57289;PMS5003;43523;53.022;-1.178;2024-03-17T05:18:48;10;10;
57289;PMS5003;43523;53.022;-1.178;2024-03-17T05:19:51;14;13;
57289;PMS5003;43523;53.022;-1.178;2024-03-17T05:21:01;13;11;
57289;PMS5003;43523;53.022;-1.178;2024-03-17T05:22:05;14;14;
57289;PMS5003;43523;53.022;-1.178;2024-03-17T05:23:08;10;9;
57289;PMS5003;43523;53.022;-1.178;2024-03-17T05:24:11;12;12;
57289;PMS5003;43523;53.022;-1.178;2024-03-17T05:25:14;9;9;
57289;PMS5003;43523;53.022;-1.178;2024-03-17T05:26:16;10;10;
57289;PMS5003;43523;53.022;-1.178;2024-03-17T05:27:18;12;11;
57289;PMS5003;43523;53.022;-1.178;2024-03-17T05:28:21;11;11;
57289;PMS5003;43523;53.022;-1.178;2024-03-17T05:29:23;12;11;
57289;PMS5003;43523;53.022;-1.178;2024-03-17T05:30:26;8;8;
57289;PMS5003;43523;53.022;-1.178;2024-03-17T05:31:28;14;12;
57289;PMS5003;43523;53.022;-1.178;2024-03-17T05:32:30;15;11;
57289;PMS5003;43523;53.022;-1.178;2024-03-17T05:33:38;10;10;
57289;PMS5003;43523;53.022;-1.178;2024-03-17T05:34:40;10;8;
57289;PMS5003;43523;53.022;-1.178;2024-03-17T05:35:48;12;8;
57289;PMS5003;43523;53.022;-1.178;2024-03-17T05:36:56;13;10;
57289;PMS5003;43523;53.022;-1.178;2024-03-17T05:37:58;10;8;
57289;PMS5003;43523;53.022;-1.178;2024-03-17T05:39:01;10;9;
57289;PMS5003;43523;53.022;-1.178;2024-03-17T05:40:05;13;9;
57289;PMS5003;43523;53.022;-1.178;2024-03-17T05:41:08;9;8;
57289;PMS5003;43523;53.022;-1.178;2024-03-17T05:42:11;23;14;
57289;PMS5003;43523;53.022;-1.178;2024-03-17T05:43:13;11;9;
57289;PMS5003;43523;53.022;-1.178;2024-03-17T05:44:16;8;8;
57289;PMS5003;43523;53.022;-1.178;2024-03-17T05:45:19;13;9;
57289;PMS5003;43523;53.022;-1.178;2024-03-17T05:46:21;10;9;
57289;PMS5003;43523;53.022;-1.178;2024-03-17T05:47:23;16;13;
57289;PMS5003;43523;53.022;-1.178;2024-03-17T05:48:26;8;8;
57289;PMS5003;43523;53.022;-1.178;2024-03-17T05:49:29;10;9;
57289;PMS5003;43523;53.022;-1.178;2024-03-17T05:50:31;11;11;
57289;PMS5003;43523;53.022;-1.178;2024-03-17T05:51:38;11;10;
57289;PMS5003;43523;53.022;-1.178;2024-03-17T05:52:41;5;5;
57289;PMS5003;43523;53.022;-1.178;2024-03-17T05:53:44;16;13;
57289;PMS5003;43523;53.022;-1.178;2024-03-17T05:54:46;11;9;
57289;PMS5003;43523;53.022;-1.178;2024-03-17T05:55:49;11;8;
57289;PMS5003;43523;53.022;-1.178;2024-03-17T05:56:51;13;10;
57289;PMS5003;43523;53.022;-1.178;2024-03-17T05:57:53;12;11;
57289;PMS5003;43523;53.022;-1.178;2024-03-17T05:58:56;9;9;
57289;PMS5003;43523;53.022;-1.178;2024-03-17T05:59:58;8;8;
57289;PMS5003;43523;53.022;-1.178;2024-03-17T06:01:01;11;9;
57289;PMS5003;43523;53.022;-1.178;2024-03-17T06:02:04;9;9;
57289;PMS5003;43523;53.022;-1.178;2024-03-17T06:03:06;11;9;
57289;PMS5003;43523;53.022;-1.178;2024-03-17T06:04:10;10;10;
57289;PMS5003;43523;53.022;-1.178;2024-03-17T06:05:12;7;7;
57289;PMS5003;43523;53.022;-1.178;2024-03-17T06:06:15;7;7;
57289;PMS5003;43523;53.022;-1.178;2024-03-17T06:07:18;12;10;
57289;PMS5003;43523;53.022;-1.178;2024-03-17T06:08:20;9;8;
57289;PMS5003;43523;53.022;-1.178;2024-03-17T06:09:23;11;10;
57289;PMS5003;43523;53.022;-1.178;2024-03-17T06:10:26;8;8;
57289;PMS5003;43523;53.022;-1.178;2024-03-17T06:11:29;8;8;
57289;PMS5003;43523;53.022;-1.178;2024-03-17T06:12:36;14;11;
57289;PMS5003;43523;53.022;-1.178;2024-03-17T06:13:42;9;8;
57289;PMS5003;43523;53.022;-1.178;2024-03-17T06:14:45;9;7;
57289;PMS5003;43523;53.022;-1.178;2024-03-17T06:15:47;8;6;
57289;PMS5003;43523;53.022;-1.178;2024-03-17T06:16:50;7;7;
57289;PMS5003;43523;53.022;-1.178;2024-03-17T06:17:52;8;8;
57289;PMS5003;43523;53.022;-1.178;2024-03-17T06:18:55;11;11;
57289;PMS5003;43523;53.022;-1.178;2024-03-17T06:19:58;6;6;
57289;PMS5003;43523;53.022;-1.178;2024-03-17T06:21:04;9;9;
57289;PMS5003;43523;53.022;-1.178;2024-03-17T06:22:07;8;7;
57289;PMS5003;43523;53.022;-1.178;2024-03-17T06:23:09;8;7;
57289;PMS5003;43523;53.022;-1.178;2024-03-17T06:24:12;7;6;
57289;PMS5003;43523;53.022;-1.178;2024-03-17T06:25:14;10;7;
57289;PMS5003;43523;53.022;-1.178;2024-03-17T06:26:16;6;4;
57289;PMS5003;43523;53.022;-1.178;2024-03-17T06:27:21;10;7;
57289;PMS5003;43523;53.022;-1.178;2024-03-17T06:28:23;8;6;
57289;PMS5003;43523;53.022;-1.178;2024-03-17T06:29:33;9;9;
57289;PMS5003;43523;53.022;-1.178;2024-03-17T06:30:36;8;8;
57289;PMS5003;43523;53.022;-1.178;2024-03-17T06:31:38;7;7;
57289;PMS5003;43523;53.022;-1.178;2024-03-17T06:32:40;12;9;
57289;PMS5003;43523;53.022;-1.178;2024-03-17T06:33:43;7;7;
57289;PMS5003;43523;53.022;-1.178;2024-03-17T06:34:45;7;7;
57289;PMS5003;43523;53.022;-1.178;2024-03-17T06:35:48;9;6;
57289;PMS5003;43523;53.022;-1.178;2024-03-17T06:36:50;8;8;
57289;PMS5003;43523;53.022;-1.178;2024-03-17T06:37:52;8;8;
57289;PMS5003;43523;53.022;-1.178;2024-03-17T06:39:00;6;6;
57289;PMS5003;43523;53.022;-1.178;2024-03-17T06:40:03;6;6;
57289;PMS5003;43523;53.022;-1.178;2024-03-17T06:41:11;5;5;
57289;PMS5003;43523;53.022;-1.178;2024-03-17T06:42:13;9;7;
57289;PMS5003;43523;53.022;-1.178;2024-03-17T06:43:16;7;6;
57289;PMS5003;43523;53.022;-1.178;2024-03-17T06:44:18;7;6;
57289;PMS5003;43523;53.022;-1.178;2024-03-17T06:45:24;10;7;
57289;PMS5003;43523;53.022;-1.178;2024-03-17T06:46:26;6;4;
57289;PMS5003;43523;53.022;-1.178;2024-03-17T06:47:29;7;5;
57289;PMS5003;43523;53.022;-1.178;2024-03-17T06:48:31;7;7;
57289;PMS5003;43523;53.022;-1.178;2024-03-17T06:49:35;6;6;
57289;PMS5003;43523;53.022;-1.178;2024-03-17T06:50:38;6;6;
57289;PMS5003;43523;53.022;-1.178;2024-03-17T06:51:40;7;5;
57289;PMS5003;43523;53.022;-1.178;2024-03-17T06:52:43;5;4;
57289;PMS5003;43523;53.022;-1.178;2024-03-17T06:53:45;6;4;
57289;PMS5003;43523;53.022;-1.178;2024-03-17T06:54:47;4;4;
57289;PMS5003;43523;53.022;-1.178;2024-03-17T06:55:53;4;4;